createdAt,value
2023-01-30T00:00:22.158Z,2.84
2023-01-30T00:03:07.495Z,2.85
2023-01-30T00:05:53.567Z,2.90
2023-01-30T00:08:38.959Z,2.89
2023-01-30T00:11:24.192Z,2.89
2023-01-30T00:14:09.529Z,2.87
2023-01-30T00:16:54.715Z,2.86
2023-01-30T00:19:40.003Z,2.92
2023-01-30T00:22:25.618Z,2.87
2023-01-30T00:25:10.871Z,2.86
2023-01-30T00:27:58.306Z,2.86
2023-01-30T00:30:43.883Z,2.92
2023-01-30T00:33:29.703Z,2.94
2023-01-30T00:36:14.914Z,2.95
2023-01-30T00:39:00.322Z,2.93
2023-01-30T00:42:04.130Z,2.89
2023-01-30T00:45:09.140Z,2.92
2023-01-30T00:47:54.200Z,2.91
2023-01-30T00:50:42.520Z,2.88
2023-01-30T00:53:30.534Z,2.89
2023-01-30T00:56:15.928Z,2.87
2023-01-30T00:59:01.171Z,2.87
2023-01-30T01:01:47.112Z,2.83
2023-01-30T01:04:43.063Z,2.81
2023-01-30T01:07:29.654Z,2.80
2023-01-30T01:10:16.570Z,2.81
2023-01-30T01:13:02.771Z,2.82
2023-01-30T01:15:50.377Z,2.83
2023-01-30T01:18:36.944Z,2.84
2023-01-30T01:21:22.773Z,2.86
2023-01-30T01:24:13.414Z,2.83
2023-01-30T01:26:58.999Z,2.80
2023-01-30T01:29:44.349Z,2.83
2023-01-30T01:32:29.783Z,2.78
2023-01-30T01:35:15.552Z,2.77
2023-01-30T01:38:01.129Z,2.78
2023-01-30T01:41:02.060Z,2.81
2023-01-30T01:44:07.641Z,2.83
2023-01-30T01:46:58.654Z,2.80
2023-01-30T01:49:44.325Z,2.83
2023-01-30T01:52:29.621Z,2.85
2023-01-30T01:55:17.495Z,2.79
2023-01-30T01:58:10.875Z,2.79
2023-01-30T02:00:59.417Z,2.83
2023-01-30T02:03:49.336Z,2.91
2023-01-30T02:06:37.200Z,2.77
2023-01-30T02:09:22.860Z,2.72
2023-01-30T02:12:10.931Z,2.65
2023-01-30T02:14:58.984Z,2.58
2023-01-30T02:17:44.394Z,2.52
2023-01-30T02:20:41.836Z,2.51
2023-01-30T02:23:46.046Z,2.52
2023-01-30T02:26:52.169Z,2.54
2023-01-30T02:30:21.935Z,2.53
2023-01-30T02:33:19.072Z,2.55
2023-01-30T02:36:16.381Z,2.59
2023-01-30T02:39:10.429Z,2.60
2023-01-30T02:42:22.371Z,2.62
2023-01-30T02:45:23.918Z,2.63
2023-01-30T02:48:14.948Z,2.64
2023-01-30T02:51:07.741Z,2.60
2023-01-30T02:53:54.324Z,2.60
2023-01-30T02:56:52.391Z,2.62
2023-01-30T02:59:47.715Z,2.55
2023-01-30T03:03:07.280Z,2.52
2023-01-30T03:06:17.022Z,2.52
2023-01-30T03:09:25.406Z,2.50
2023-01-30T03:12:35.618Z,2.51
2023-01-30T03:15:38.708Z,2.53
2023-01-30T03:18:24.552Z,2.54
2023-01-30T03:21:12.333Z,2.59
2023-01-30T03:23:57.904Z,2.64
2023-01-30T03:26:56.036Z,2.70
2023-01-30T03:29:41.629Z,2.68
2023-01-30T03:32:26.970Z,2.72
2023-01-30T03:35:12.731Z,2.72
2023-01-30T03:37:58.368Z,2.73
2023-01-30T03:40:44.069Z,2.72
2023-01-30T03:43:29.322Z,2.74
2023-01-30T03:46:14.870Z,2.75
2023-01-30T03:49:00.259Z,2.75
2023-01-30T03:51:46.108Z,2.78
2023-01-30T03:54:32.455Z,2.75
2023-01-30T03:57:17.836Z,2.72
2023-01-30T04:00:04.744Z,2.72
2023-01-30T04:03:01.634Z,2.73
2023-01-30T04:05:47.078Z,2.77
2023-01-30T04:08:32.621Z,2.78
2023-01-30T04:11:18.036Z,2.82
2023-01-30T04:14:03.576Z,2.83
2023-01-30T04:16:49.197Z,2.90
2023-01-30T04:19:53.248Z,2.92
2023-01-30T04:22:38.638Z,2.94
2023-01-30T04:25:23.975Z,2.98
2023-01-30T04:28:09.583Z,3.05
2023-01-30T04:30:57.075Z,3.06
2023-01-30T04:34:03.029Z,3.11
2023-01-30T04:36:48.973Z,3.11
2023-01-30T04:39:34.125Z,3.13
2023-01-30T04:42:19.601Z,3.19
2023-01-30T04:45:24.702Z,3.20
2023-01-30T04:48:10.882Z,3.22
2023-01-30T04:50:58.698Z,3.27
2023-01-30T04:53:44.481Z,3.25
2023-01-30T04:56:30.135Z,3.21
2023-01-30T04:59:16.039Z,3.20
2023-01-30T05:02:03.296Z,3.19
2023-01-30T05:04:50.227Z,3.16
2023-01-30T05:07:35.651Z,3.14
2023-01-30T05:10:21.258Z,3.13
2023-01-30T05:13:07.401Z,3.18
2023-01-30T05:15:52.526Z,3.15
2023-01-30T05:18:37.748Z,3.13
2023-01-30T05:21:26.157Z,3.08
2023-01-30T05:24:11.340Z,3.03
2023-01-30T05:26:56.779Z,3.01
2023-01-30T05:29:42.081Z,2.94
2023-01-30T05:32:30.321Z,2.91
2023-01-30T05:35:15.946Z,2.91
2023-01-30T05:38:02.159Z,2.95
2023-01-30T05:40:47.510Z,2.98
2023-01-30T05:43:34.201Z,3.01
2023-01-30T05:46:19.952Z,3.03
2023-01-30T05:49:05.254Z,3.03
2023-01-30T05:51:51.562Z,3.03
2023-01-30T05:54:37.255Z,3.02
2023-01-30T05:57:22.218Z,3.02
2023-01-30T06:00:08.359Z,3.00
2023-01-30T06:02:58.229Z,3.00
2023-01-30T06:05:43.397Z,2.95
2023-01-30T06:08:28.940Z,2.97
2023-01-30T06:11:16.679Z,2.98
2023-01-30T06:14:01.810Z,3.00
2023-01-30T06:16:47.191Z,3.02
2023-01-30T06:19:32.497Z,3.04
2023-01-30T06:22:17.936Z,3.07
2023-01-30T06:25:03.737Z,3.09
2023-01-30T06:27:49.058Z,3.16
2023-01-30T06:30:34.537Z,3.16
2023-01-30T06:33:20.576Z,3.19
2023-01-30T06:36:06.357Z,3.24
2023-01-30T06:38:51.874Z,3.26
2023-01-30T06:41:36.876Z,3.28
2023-01-30T06:44:22.318Z,3.32
2023-01-30T06:47:07.363Z,3.35
2023-01-30T06:49:52.460Z,3.38
2023-01-30T06:52:42.053Z,3.40
2023-01-30T06:55:28.391Z,3.47
2023-01-30T06:58:14.802Z,3.52
2023-01-30T07:01:00.200Z,3.57
2023-01-30T07:03:45.658Z,3.58
2023-01-30T07:06:31.179Z,3.62
2023-01-30T07:09:16.359Z,3.66
2023-01-30T07:12:01.608Z,3.71
2023-01-30T07:14:47.130Z,3.75
2023-01-30T07:17:32.892Z,3.79
2023-01-30T07:20:18.174Z,3.83
2023-01-30T07:23:03.702Z,3.86
2023-01-30T07:25:49.294Z,3.90
2023-01-30T07:28:34.623Z,3.96
2023-01-30T07:31:19.935Z,3.96
2023-01-30T07:34:05.258Z,4.00
2023-01-30T07:36:50.900Z,4.10
2023-01-30T07:39:36.306Z,4.15
2023-01-30T07:42:21.332Z,4.17
2023-01-30T07:45:07.376Z,4.23
2023-01-30T07:47:53.729Z,4.23
2023-01-30T07:50:39.522Z,4.24
2023-01-30T07:53:24.928Z,4.23
2023-01-30T07:56:11.483Z,4.22
2023-01-30T07:58:57.112Z,4.24
2023-01-30T08:01:42.593Z,4.29
2023-01-30T08:04:28.087Z,4.29
2023-01-30T08:07:13.488Z,4.30
2023-01-30T08:09:58.678Z,4.27
2023-01-30T08:12:43.877Z,4.31
2023-01-30T08:15:31.466Z,4.36
2023-01-30T08:18:16.612Z,4.39
2023-01-30T08:21:05.676Z,4.42
2023-01-30T08:23:50.916Z,4.48
2023-01-30T08:26:36.845Z,4.46
2023-01-30T08:29:22.188Z,4.50
2023-01-30T08:32:08.010Z,4.55
2023-01-30T08:34:53.367Z,4.61
2023-01-30T08:37:40.488Z,4.63
2023-01-30T08:40:25.907Z,4.74
2023-01-30T08:43:11.116Z,5.12
2023-01-30T08:45:56.622Z,5.20
2023-01-30T08:48:49.596Z,4.97
2023-01-30T08:51:36.876Z,4.90
2023-01-30T08:54:22.250Z,4.86
2023-01-30T08:57:07.637Z,4.85
2023-01-30T08:59:52.651Z,4.87
2023-01-30T09:02:38.643Z,4.95
2023-01-30T09:05:25.107Z,5.03
2023-01-30T09:08:10.575Z,5.09
2023-01-30T09:11:03.899Z,5.17
2023-01-30T09:13:49.862Z,5.23
2023-01-30T09:16:35.296Z,5.20
2023-01-30T09:19:22.633Z,5.15
2023-01-30T09:22:08.418Z,5.15
2023-01-30T09:24:54.162Z,5.25
2023-01-30T09:27:39.727Z,5.39
2023-01-30T09:30:24.961Z,5.39
2023-01-30T09:33:10.515Z,5.45
2023-01-30T09:35:55.802Z,5.44
2023-01-30T09:38:41.053Z,5.39
2023-01-30T09:41:29.675Z,5.43
2023-01-30T09:44:32.912Z,5.50
2023-01-30T09:47:39.311Z,5.57
2023-01-30T09:50:27.738Z,5.67
2023-01-30T09:53:31.329Z,5.73
2023-01-30T09:56:17.164Z,5.77
2023-01-30T09:59:04.619Z,5.78
2023-01-30T10:02:27.336Z,5.79
2023-01-30T10:05:13.198Z,5.73
2023-01-30T10:08:20.301Z,5.72
2023-01-30T10:11:10.966Z,5.78
2023-01-30T10:14:15.186Z,5.86
2023-01-30T10:17:16.901Z,5.93
2023-01-30T10:20:34.140Z,5.93
2023-01-30T10:23:37.582Z,5.99
2023-01-30T10:26:26.404Z,6.17
2023-01-30T10:29:18.332Z,6.49
2023-01-30T10:32:30.984Z,6.69
2023-01-30T10:35:32.019Z,6.55
2023-01-30T10:38:27.541Z,6.55
2023-01-30T10:41:34.123Z,6.45
2023-01-30T10:44:22.772Z,6.44
2023-01-30T10:47:47.091Z,6.41
2023-01-30T10:50:56.950Z,6.36
2023-01-30T10:53:55.528Z,6.32
2023-01-30T10:56:51.055Z,6.33
2023-01-30T11:00:02.622Z,6.34
2023-01-30T11:03:02.907Z,6.24
2023-01-30T11:05:54.302Z,6.28
2023-01-30T11:08:40.001Z,6.26
2023-01-30T11:11:48.000Z,6.28
2023-01-30T11:14:59.579Z,6.20
2023-01-30T11:17:45.424Z,6.17
2023-01-30T11:20:30.880Z,6.29
2023-01-30T11:23:26.286Z,6.49
2023-01-30T11:26:21.738Z,6.65
2023-01-30T11:29:27.624Z,6.71
2023-01-30T11:32:19.459Z,6.70
2023-01-30T11:35:08.767Z,6.79
2023-01-30T11:38:12.439Z,6.83
2023-01-30T11:41:18.780Z,6.70
2023-01-30T11:44:05.744Z,6.58
2023-01-30T11:46:51.117Z,6.42
2023-01-30T11:49:47.224Z,6.37
2023-01-30T11:52:39.003Z,6.32
2023-01-30T11:55:24.777Z,6.35
2023-01-30T11:58:10.531Z,6.32
2023-01-30T12:00:55.993Z,6.30
2023-01-30T12:03:53.484Z,6.34
2023-01-30T12:06:42.206Z,6.08
2023-01-30T12:09:45.587Z,5.77
2023-01-30T12:12:35.065Z,5.15
2023-01-30T12:15:27.178Z,4.81
2023-01-30T12:18:57.166Z,4.63
2023-01-30T12:22:36.504Z,4.82
2023-01-30T12:25:35.717Z,5.02
2023-01-30T12:28:54.992Z,5.21
2023-01-30T12:31:47.777Z,5.36
2023-01-30T12:34:33.272Z,5.45
2023-01-30T12:37:33.534Z,5.49
2023-01-30T12:40:22.132Z,5.63
2023-01-30T12:43:15.707Z,5.74
2023-01-30T12:46:06.906Z,5.88
2023-01-30T12:49:10.393Z,5.94
2023-01-30T12:52:12.742Z,6.11
2023-01-30T12:55:37.944Z,6.20
2023-01-30T12:58:38.799Z,6.31
2023-01-30T13:01:45.681Z,6.24
2023-01-30T13:05:04.342Z,6.44
2023-01-30T13:08:27.871Z,6.55
2023-01-30T13:11:31.069Z,6.47
2023-01-30T13:14:26.261Z,6.64
2023-01-30T13:17:23.761Z,6.92
2023-01-30T13:20:09.129Z,6.37
2023-01-30T13:23:13.609Z,6.37
2023-01-30T13:26:06.291Z,6.54
2023-01-30T13:28:57.833Z,6.56
2023-01-30T13:31:53.780Z,6.52
2023-01-30T13:34:44.727Z,6.49
2023-01-30T13:37:32.434Z,6.43
2023-01-30T13:40:31.724Z,6.38
2023-01-30T13:43:37.375Z,6.30
2023-01-30T13:46:27.514Z,6.14
2023-01-30T13:49:24.817Z,5.87
2023-01-30T13:52:33.912Z,5.57
2023-01-30T13:55:32.166Z,5.37
2023-01-30T13:58:30.348Z,5.25
2023-01-30T14:01:15.900Z,5.05
2023-01-30T14:04:36.661Z,4.94
2023-01-30T14:07:32.152Z,4.82
2023-01-30T14:10:20.793Z,4.60
2023-01-30T14:13:06.467Z,4.41
2023-01-30T14:16:00.631Z,4.21
2023-01-30T14:18:46.434Z,4.03
2023-01-30T14:21:31.741Z,3.88
2023-01-30T14:24:24.928Z,3.95
2023-01-30T14:27:27.283Z,4.03
2023-01-30T14:30:39.022Z,4.09
2023-01-30T14:33:24.488Z,4.08
2023-01-30T14:36:16.116Z,4.04
2023-01-30T14:39:39.644Z,4.04
2023-01-30T14:42:27.822Z,3.95
2023-01-30T14:45:17.234Z,3.95
2023-01-30T14:48:28.163Z,3.84
2023-01-30T14:51:53.456Z,3.85
2023-01-30T14:54:48.359Z,3.79
2023-01-30T14:57:34.746Z,3.76
2023-01-30T15:00:24.604Z,3.80
2023-01-30T15:03:20.194Z,3.80
2023-01-30T15:06:06.893Z,3.98
2023-01-30T15:08:52.526Z,3.99
2023-01-30T15:11:38.587Z,4.03
2023-01-30T15:14:55.269Z,4.07
2023-01-30T15:18:10.309Z,4.20
2023-01-30T15:21:37.283Z,4.18
2023-01-30T15:24:40.985Z,4.18
2023-01-30T15:27:45.163Z,4.25
2023-01-30T15:31:01.025Z,4.29
2023-01-30T15:33:52.021Z,4.31
2023-01-30T15:36:38.780Z,4.39
2023-01-30T15:39:26.307Z,4.37
2023-01-30T15:42:15.104Z,4.36
2023-01-30T15:45:11.741Z,4.41
2023-01-30T15:48:06.543Z,4.48
2023-01-30T15:50:55.163Z,4.44
2023-01-30T15:53:44.102Z,4.55
2023-01-30T15:56:31.970Z,4.55
2023-01-30T15:59:39.873Z,4.50
2023-01-30T16:02:35.938Z,4.52
2023-01-30T16:05:25.358Z,4.50
2023-01-30T16:08:19.989Z,4.54
2023-01-30T16:11:05.185Z,4.60
2023-01-30T16:13:50.808Z,4.59
2023-01-30T16:16:37.275Z,4.67
2023-01-30T16:19:29.339Z,4.70
2023-01-30T16:22:20.517Z,4.76
2023-01-30T16:25:06.134Z,4.71
2023-01-30T16:27:53.622Z,4.58
2023-01-30T16:30:42.558Z,4.50
2023-01-30T16:33:36.338Z,4.41
2023-01-30T16:36:22.085Z,4.37
2023-01-30T16:39:34.995Z,4.33
2023-01-30T16:42:28.796Z,4.23
2023-01-30T16:45:14.125Z,4.19
2023-01-30T16:48:30.622Z,4.18
2023-01-30T16:51:22.233Z,4.16
2023-01-30T16:54:19.040Z,4.21
2023-01-30T16:57:04.696Z,4.23
2023-01-30T16:59:50.414Z,4.26
2023-01-30T17:02:39.580Z,4.25
2023-01-30T17:05:51.378Z,4.28
2023-01-30T17:08:46.780Z,4.27
2023-01-30T17:11:37.835Z,4.26
2023-01-30T17:14:30.559Z,4.35
2023-01-30T17:17:16.484Z,4.30
2023-01-30T17:20:01.750Z,4.33
2023-01-30T17:22:49.953Z,4.33
2023-01-30T17:25:47.979Z,4.44
2023-01-30T17:28:33.414Z,4.51
2023-01-30T17:31:20.872Z,4.51
2023-01-30T17:34:05.937Z,4.55
2023-01-30T17:36:53.193Z,4.55
2023-01-30T17:39:38.576Z,4.61
2023-01-30T17:42:24.324Z,4.56
2023-01-30T17:45:10.537Z,4.58
2023-01-30T17:47:56.144Z,4.66
2023-01-30T17:50:41.880Z,4.69
2023-01-30T17:53:27.230Z,4.72
2023-01-30T17:56:19.141Z,4.71
2023-01-30T17:59:22.988Z,4.76
2023-01-30T18:02:09.993Z,4.81
2023-01-30T18:04:55.494Z,4.83
2023-01-30T18:07:41.599Z,4.88
2023-01-30T18:10:27.101Z,4.95
2023-01-30T18:13:15.204Z,4.95
2023-01-30T18:16:00.707Z,5.04
2023-01-30T18:18:45.903Z,5.05
2023-01-30T18:21:32.977Z,5.11
2023-01-30T18:24:18.823Z,5.15
2023-01-30T18:27:04.067Z,5.21
2023-01-30T18:29:49.393Z,5.20
2023-01-30T18:32:37.737Z,5.27
2023-01-30T18:35:23.410Z,5.26
2023-01-30T18:38:08.536Z,5.29
2023-01-30T18:40:53.889Z,5.33
2023-01-30T18:43:39.341Z,5.32
2023-01-30T18:46:26.196Z,5.32
2023-01-30T18:49:11.552Z,5.34
2023-01-30T18:51:56.987Z,5.34
2023-01-30T18:54:42.174Z,5.36
2023-01-30T18:57:27.982Z,5.36
2023-01-30T19:00:15.304Z,5.33
2023-01-30T19:07:42.835Z,5.40
2023-01-30T19:10:28.400Z,5.41
2023-01-30T19:13:32.572Z,5.41
2023-01-30T19:16:23.479Z,5.35
2023-01-30T19:19:10.047Z,5.32
2023-01-30T19:21:55.611Z,5.35
2023-01-30T19:24:45.805Z,5.34
2023-01-30T19:27:31.050Z,5.33
2023-01-30T19:30:16.628Z,5.30
2023-01-30T19:33:02.260Z,5.28
2023-01-30T19:35:48.987Z,5.29
2023-01-30T19:38:34.437Z,5.33
2023-01-30T19:41:22.358Z,5.35
2023-01-30T19:44:08.934Z,5.37
2023-01-30T19:46:55.849Z,5.35
2023-01-30T19:49:42.225Z,5.36
2023-01-30T19:52:27.424Z,5.35
2023-01-30T19:55:12.681Z,5.31
2023-01-30T19:57:57.896Z,5.25
2023-01-30T20:00:43.285Z,5.17
2023-01-30T20:03:30.094Z,5.12
2023-01-30T20:06:23.792Z,5.07
2023-01-30T20:09:11.945Z,5.01
2023-01-30T20:11:57.046Z,5.01
2023-01-30T20:14:42.656Z,4.98
2023-01-30T20:17:28.191Z,4.95
2023-01-30T20:20:13.551Z,4.94
2023-01-30T20:22:59.720Z,5.00
2023-01-30T20:25:46.491Z,5.01
2023-01-30T20:28:32.945Z,5.04
2023-01-30T20:31:21.469Z,5.10
2023-01-30T20:34:11.347Z,5.14
2023-01-30T20:36:57.497Z,5.10
2023-01-30T20:39:47.670Z,5.10
2023-01-30T20:42:33.665Z,5.10
2023-01-30T20:45:25.273Z,5.05
2023-01-30T20:48:10.474Z,4.98
2023-01-30T20:50:55.900Z,4.95
2023-01-30T20:53:51.285Z,4.90
2023-01-30T20:56:45.633Z,4.96
2023-01-30T20:59:33.400Z,5.02
2023-01-30T21:02:18.540Z,5.10
2023-01-30T21:05:04.072Z,5.12
2023-01-30T21:07:49.459Z,5.11
2023-01-30T21:10:35.904Z,5.15
2023-01-30T21:13:22.170Z,5.18
2023-01-30T21:16:11.817Z,5.16
2023-01-30T21:19:01.365Z,5.20
2023-01-30T21:21:54.918Z,5.24
2023-01-30T21:24:40.355Z,5.20
2023-01-30T21:27:25.596Z,5.21
2023-01-30T21:30:11.542Z,5.13
2023-01-30T21:32:57.821Z,5.06
2023-01-30T21:35:43.329Z,5.03
2023-01-30T21:38:47.722Z,5.02
2023-01-30T21:41:56.198Z,4.99
2023-01-30T21:44:41.570Z,4.99
2023-01-30T21:47:27.060Z,5.00
2023-01-30T21:50:12.409Z,4.98
2023-01-30T21:52:57.768Z,4.95
2023-01-30T21:55:42.981Z,4.91
2023-01-30T21:58:31.443Z,4.86
2023-01-30T22:01:18.244Z,4.80
2023-01-30T22:04:06.371Z,4.78
2023-01-30T22:06:51.803Z,4.71
2023-01-30T22:09:37.440Z,4.65
2023-01-30T22:12:23.455Z,4.57
2023-01-30T22:15:09.573Z,4.51
2023-01-30T22:17:55.121Z,4.50
2023-01-30T22:20:42.853Z,4.43
2023-01-30T22:23:36.405Z,4.46
2023-01-30T22:26:24.065Z,4.43
2023-01-30T22:29:09.505Z,4.35
2023-01-30T22:31:55.288Z,4.53
2023-01-30T22:34:41.012Z,4.40
2023-01-30T22:37:26.301Z,4.31
2023-01-30T22:40:14.180Z,4.36
2023-01-30T22:42:59.567Z,4.32
2023-01-30T22:45:44.843Z,4.30
2023-01-30T22:48:31.142Z,4.26
2023-01-30T22:51:19.558Z,4.23
2023-01-30T22:54:15.420Z,4.22
2023-01-30T22:57:00.641Z,4.17
2023-01-30T22:59:46.243Z,4.15
2023-01-30T23:02:31.397Z,4.15
2023-01-30T23:05:17.455Z,4.16
2023-01-30T23:08:03.157Z,4.16
2023-01-30T23:10:48.618Z,4.10
2023-01-30T23:13:34.891Z,4.11
2023-01-30T23:16:23.595Z,4.05
2023-01-30T23:19:11.426Z,4.00
2023-01-30T23:21:56.522Z,3.98
2023-01-30T23:24:41.916Z,4.03
2023-01-30T23:27:27.691Z,3.99
2023-01-30T23:30:13.232Z,4.01
2023-01-30T23:32:58.591Z,4.00
2023-01-30T23:35:46.362Z,4.02
2023-01-30T23:38:32.364Z,3.97
2023-01-30T23:41:21.239Z,3.99
2023-01-30T23:44:06.955Z,3.92
2023-01-30T23:46:52.477Z,3.93
2023-01-30T23:49:38.044Z,3.94
2023-01-30T23:52:23.095Z,3.97
2023-01-30T23:55:08.863Z,3.99
2023-01-30T23:57:54.401Z,3.97
